sensor_id;sensor_type;location;lat;lon;timestamp;P1;durP1;ratioP1;P2;durP2;ratioP2
52342;SDS011;38277;51.972;4.624;2023-05-23T00:02:48;24.1;;;11.1;;
52342;SDS011;38277;51.972;4.624;2023-05-23T00:07:27;22.1;;;11.8;;
52342;SDS011;38277;51.972;4.624;2023-05-23T00:11:59;27.2;;;11.5;;
52342;SDS011;38277;51.972;4.624;2023-05-23T00:16:15;17.6;;;9.4;;
52342;SDS011;38277;51.972;4.624;2023-05-23T00:20:48;19.4;;;8.8;;
52342;SDS011;38277;51.972;4.624;2023-05-23T00:29:46;13.2;;;6.8;;
52342;SDS011;38277;51.972;4.624;2023-05-23T00:34:15;19.9;;;7.6;;
52342;SDS011;38277;51.972;4.624;2023-05-23T00:39:02;18.4;;;6.7;;
52342;SDS011;38277;51.972;4.624;2023-05-23T00:43:31;17.6;;;7.5;;
52342;SDS011;38277;51.972;4.624;2023-05-23T00:47:52;26.7;;;8.3;;
52342;SDS011;38277;51.972;4.624;2023-05-23T00:53:00;19.3;;;7.7;;
52342;SDS011;38277;51.972;4.624;2023-05-23T00:56:48;21.2;;;8.4;;
52342;SDS011;38277;51.972;4.624;2023-05-23T01:01:15;19.8;;;7.8;;
52342;SDS011;38277;51.972;4.624;2023-05-23T01:06:04;20.3;;;8.7;;
52342;SDS011;38277;51.972;4.624;2023-05-23T01:10:24;20.0;;;7.9;;
52342;SDS011;38277;51.972;4.624;2023-05-23T01:14:46;21.1;;;8.5;;
52342;SDS011;38277;51.972;4.624;2023-05-23T01:19:57;22.4;;;8.9;;
52342;SDS011;38277;51.972;4.624;2023-05-23T01:24:20;22.1;;;8.2;;
52342;SDS011;38277;51.972;4.624;2023-05-23T01:28:59;17.7;;;8.2;;
52342;SDS011;38277;51.972;4.624;2023-05-23T01:32:50;21.9;;;9.3;;
52342;SDS011;38277;51.972;4.624;2023-05-23T01:37:25;22.4;;;9.0;;
52342;SDS011;38277;51.972;4.624;2023-05-23T01:41:38;21.1;;;7.5;;
52342;SDS011;38277;51.972;4.624;2023-05-23T01:46:46;21.4;;;8.1;;
52342;SDS011;38277;51.972;4.624;2023-05-23T01:50:49;22.8;;;7.8;;
52342;SDS011;38277;51.972;4.624;2023-05-23T01:55:23;23.8;;;9.5;;
52342;SDS011;38277;51.972;4.624;2023-05-23T01:59:55;20.7;;;8.7;;
52342;SDS011;38277;51.972;4.624;2023-05-23T02:08:45;20.9;;;7.0;;
52342;SDS011;38277;51.972;4.624;2023-05-23T02:13:20;19.7;;;7.7;;
52342;SDS011;38277;51.972;4.624;2023-05-23T02:17:47;18.9;;;8.2;;
52342;SDS011;38277;51.972;4.624;2023-05-23T02:26:50;27.3;;;8.8;;
52342;SDS011;38277;51.972;4.624;2023-05-23T02:31:20;25.1;;;8.8;;
52342;SDS011;38277;51.972;4.624;2023-05-23T02:35:58;24.2;;;8.9;;
52342;SDS011;38277;51.972;4.624;2023-05-23T02:40:36;22.9;;;7.7;;
52342;SDS011;38277;51.972;4.624;2023-05-23T02:45:06;26.8;;;8.2;;
52342;SDS011;38277;51.972;4.624;2023-05-23T02:49:19;22.0;;;8.1;;
52342;SDS011;38277;51.972;4.624;2023-05-23T02:53:53;23.7;;;7.2;;
52342;SDS011;38277;51.972;4.624;2023-05-23T02:58:42;23.3;;;7.2;;
52342;SDS011;38277;51.972;4.624;2023-05-23T03:03:00;18.5;;;7.5;;
52342;SDS011;38277;51.972;4.624;2023-05-23T03:07:22;20.4;;;6.4;;
52342;SDS011;38277;51.972;4.624;2023-05-23T03:11:58;21.5;;;6.2;;
52342;SDS011;38277;51.972;4.624;2023-05-23T03:16:10;16.9;;;6.1;;
52342;SDS011;38277;51.972;4.624;2023-05-23T03:20:46;20.1;;;5.6;;
52342;SDS011;38277;51.972;4.624;2023-05-23T03:25:27;18.8;;;5.5;;
52342;SDS011;38277;51.972;4.624;2023-05-23T03:29:38;16.1;;;5.5;;
52342;SDS011;38277;51.972;4.624;2023-05-23T03:34:19;17.0;;;6.4;;
52342;SDS011;38277;51.972;4.624;2023-05-23T03:38:59;23.9;;;6.1;;
52342;SDS011;38277;51.972;4.624;2023-05-23T03:43:09;15.9;;;5.3;;
52342;SDS011;38277;51.972;4.624;2023-05-23T03:47:38;16.4;;;4.7;;
52342;SDS011;38277;51.972;4.624;2023-05-23T03:52:58;14.4;;;4.8;;
52342;SDS011;38277;51.972;4.624;2023-05-23T03:56:39;13.4;;;4.4;;
52342;SDS011;38277;51.972;4.624;2023-05-23T04:01:52;17.2;;;4.9;;
52342;SDS011;38277;51.972;4.624;2023-05-23T04:05:39;16.7;;;5.3;;
52342;SDS011;38277;51.972;4.624;2023-05-23T04:10:18;15.9;;;4.7;;
52342;SDS011;38277;51.972;4.624;2023-05-23T04:49:07;15.9;;;4.4;;
52342;SDS011;38277;51.972;4.624;2023-05-23T04:50:59;20.8;;;6.6;;
52342;SDS011;38277;51.972;4.624;2023-05-23T04:55:27;19.4;;;6.9;;
52342;SDS011;38277;51.972;4.624;2023-05-23T04:59:41;15.3;;;6.3;;
52342;SDS011;38277;51.972;4.624;2023-05-23T05:04:13;16.2;;;6.3;;
52342;SDS011;38277;51.972;4.624;2023-05-23T05:08:46;19.6;;;7.1;;
52342;SDS011;38277;51.972;4.624;2023-05-23T05:17:46;24.4;;;7.7;;
52342;SDS011;38277;51.972;4.624;2023-05-23T05:22:13;17.9;;;6.8;;
52342;SDS011;38277;51.972;4.624;2023-05-23T05:31:32;19.2;;;6.6;;
52342;SDS011;38277;51.972;4.624;2023-05-23T05:35:59;21.4;;;7.7;;
52342;SDS011;38277;51.972;4.624;2023-05-23T05:40:09;17.4;;;6.1;;
52342;SDS011;38277;51.972;4.624;2023-05-23T05:45:04;18.1;;;6.1;;
52342;SDS011;38277;51.972;4.624;2023-05-23T05:53:56;19.2;;;6.5;;
52342;SDS011;38277;51.972;4.624;2023-05-23T05:58:22;19.3;;;6.1;;
52342;SDS011;38277;51.972;4.624;2023-05-23T06:02:41;16.2;;;5.7;;
52342;SDS011;38277;51.972;4.624;2023-05-23T06:07:33;17.5;;;6.0;;
52342;SDS011;38277;51.972;4.624;2023-05-23T06:11:39;12.9;;;5.1;;
52342;SDS011;38277;51.972;4.624;2023-05-23T06:16:25;17.4;;;5.0;;
52342;SDS011;38277;51.972;4.624;2023-05-23T06:20:45;12.7;;;4.3;;
52342;SDS011;38277;51.972;4.624;2023-05-23T06:29:53;14.6;;;5.0;;
52342;SDS011;38277;51.972;4.624;2023-05-23T06:34:08;12.2;;;3.6;;
52342;SDS011;38277;51.972;4.624;2023-05-23T06:39:07;9.1;;;3.6;;
52342;SDS011;38277;51.972;4.624;2023-05-23T06:43:32;11.6;;;3.5;;
52342;SDS011;38277;51.972;4.624;2023-05-23T06:47:50;11.1;;;3.8;;
52342;SDS011;38277;51.972;4.624;2023-05-23T06:52:33;13.4;;;3.6;;
52342;SDS011;38277;51.972;4.624;2023-05-23T06:56:53;9.4;;;3.2;;
52342;SDS011;38277;51.972;4.624;2023-05-23T07:05:53;10.0;;;2.9;;
52342;SDS011;38277;51.972;4.624;2023-05-23T07:10:12;12.4;;;3.4;;
52342;SDS011;38277;51.972;4.624;2023-05-23T07:23:55;12.8;;;3.3;;
52342;SDS011;38277;51.972;4.624;2023-05-23T07:28:16;9.7;;;2.9;;
52342;SDS011;38277;51.972;4.624;2023-05-23T07:32:47;14.1;;;3.5;;
52342;SDS011;38277;51.972;4.624;2023-05-23T07:41:56;19.0;;;4.5;;
52342;SDS011;38277;51.972;4.624;2023-05-23T07:46:16;15.9;;;3.9;;
52342;SDS011;38277;51.972;4.624;2023-05-23T07:50:43;9.0;;;3.1;;
52342;SDS011;38277;51.972;4.624;2023-05-23T07:55:19;13.1;;;3.8;;
52342;SDS011;38277;51.972;4.624;2023-05-23T07:59:59;13.9;;;3.5;;
52342;SDS011;38277;51.972;4.624;2023-05-23T08:04:54;14.5;;;3.9;;
52342;SDS011;38277;51.972;4.624;2023-05-23T08:09:03;17.7;;;3.8;;
52342;SDS011;38277;51.972;4.624;2023-05-23T08:13:21;14.4;;;3.0;;
52342;SDS011;38277;51.972;4.624;2023-05-23T08:18:04;16.2;;;3.8;;
52342;SDS011;38277;51.972;4.624;2023-05-23T08:23:20;11.1;;;3.4;;
52342;SDS011;38277;51.972;4.624;2023-05-23T08:26:48;13.6;;;3.7;;
52342;SDS011;38277;51.972;4.624;2023-05-23T08:31:20;12.2;;;3.4;;
52342;SDS011;38277;51.972;4.624;2023-05-23T08:35:59;11.3;;;4.0;;
52342;SDS011;38277;51.972;4.624;2023-05-23T08:41:23;13.1;;;3.1;;
52342;SDS011;38277;51.972;4.624;2023-05-23T08:44:52;12.5;;;3.1;;
52342;SDS011;38277;51.972;4.624;2023-05-23T08:50:16;17.9;;;3.6;;
52342;SDS011;38277;51.972;4.624;2023-05-23T08:53:51;14.9;;;3.5;;
52342;SDS011;38277;51.972;4.624;2023-05-23T08:58:58;14.7;;;3.9;;
52342;SDS011;38277;51.972;4.624;2023-05-23T09:02:41;11.6;;;3.3;;
52342;SDS011;38277;51.972;4.624;2023-05-23T09:07:36;12.3;;;4.2;;
52342;SDS011;38277;51.972;4.624;2023-05-23T09:11:59;13.6;;;3.6;;
52342;SDS011;38277;51.972;4.624;2023-05-23T09:17:18;15.2;;;4.0;;
52342;SDS011;38277;51.972;4.624;2023-05-23T09:20:51;12.8;;;4.0;;
52342;SDS011;38277;51.972;4.624;2023-05-23T09:25:08;14.1;;;4.3;;
52342;SDS011;38277;51.972;4.624;2023-05-23T09:30:05;12.0;;;3.8;;
52342;SDS011;38277;51.972;4.624;2023-05-23T09:35:21;14.2;;;3.5;;
52342;SDS011;38277;51.972;4.624;2023-05-23T09:39:02;14.5;;;3.6;;
52342;SDS011;38277;51.972;4.624;2023-05-23T09:43:30;16.2;;;3.8;;
52342;SDS011;38277;51.972;4.624;2023-05-23T09:47:47;12.3;;;3.7;;
52342;SDS011;38277;51.972;4.624;2023-05-23T09:53:19;19.6;;;4.1;;
52342;SDS011;38277;51.972;4.624;2023-05-23T09:56:57;13.3;;;4.0;;
52342;SDS011;38277;51.972;4.624;2023-05-23T10:01:24;18.1;;;4.2;;
52342;SDS011;38277;51.972;4.624;2023-05-23T10:05:49;13.9;;;3.3;;
52342;SDS011;38277;51.972;4.624;2023-05-23T10:10:12;12.4;;;3.4;;
52342;SDS011;38277;51.972;4.624;2023-05-23T10:15:00;11.5;;;3.3;;
52342;SDS011;38277;51.972;4.624;2023-05-23T10:23:50;17.3;;;4.0;;
52342;SDS011;38277;51.972;4.624;2023-05-23T10:28:36;20.1;;;3.8;;
52342;SDS011;38277;51.972;4.624;2023-05-23T10:46:42;15.5;;;3.8;;
52342;SDS011;38277;51.972;4.624;2023-05-23T10:51:01;15.6;;;4.3;;
52342;SDS011;38277;51.972;4.624;2023-05-23T11:04:33;11.3;;;3.4;;
52342;SDS011;38277;51.972;4.624;2023-05-23T11:08:40;10.9;;;3.3;;
52342;SDS011;38277;51.972;4.624;2023-05-23T11:13:13;13.0;;;3.5;;
52342;SDS011;38277;51.972;4.624;2023-05-23T11:18:52;10.5;;;3.3;;
52342;SDS011;38277;51.972;4.624;2023-05-23T11:22:37;13.1;;;3.4;;
52342;SDS011;38277;51.972;4.624;2023-05-23T11:26:56;14.0;;;3.4;;
52342;SDS011;38277;51.972;4.624;2023-05-23T11:31:16;12.8;;;3.6;;
52342;SDS011;38277;51.972;4.624;2023-05-23T11:35:49;10.9;;;3.8;;
52342;SDS011;38277;51.972;4.624;2023-05-23T11:40:40;11.2;;;3.1;;
52342;SDS011;38277;51.972;4.624;2023-05-23T11:44:55;10.4;;;3.6;;
52342;SDS011;38277;51.972;4.624;2023-05-23T11:49:17;10.1;;;2.8;;
52342;SDS011;38277;51.972;4.624;2023-05-23T11:54:02;11.1;;;3.5;;
52342;SDS011;38277;51.972;4.624;2023-05-23T11:58:32;12.2;;;3.8;;
52342;SDS011;38277;51.972;4.624;2023-05-23T12:02:44;11.4;;;3.4;;
52342;SDS011;38277;51.972;4.624;2023-05-23T12:07:15;11.4;;;3.5;;
52342;SDS011;38277;51.972;4.624;2023-05-23T12:12:01;15.6;;;3.7;;
52342;SDS011;38277;51.972;4.624;2023-05-23T12:16:29;13.7;;;3.2;;
52342;SDS011;38277;51.972;4.624;2023-05-23T12:21:41;12.1;;;3.1;;
52342;SDS011;38277;51.972;4.624;2023-05-23T12:25:08;13.8;;;3.1;;
52342;SDS011;38277;51.972;4.624;2023-05-23T12:29:49;12.6;;;3.1;;
52342;SDS011;38277;51.972;4.624;2023-05-23T12:34:19;14.1;;;3.0;;
52342;SDS011;38277;51.972;4.624;2023-05-23T12:38:43;10.5;;;3.0;;
52342;SDS011;38277;51.972;4.624;2023-05-23T12:43:36;10.8;;;3.3;;
52342;SDS011;38277;51.972;4.624;2023-05-23T12:47:50;13.7;;;3.9;;
52342;SDS011;38277;51.972;4.624;2023-05-23T12:56:45;14.4;;;3.3;;
52342;SDS011;38277;51.972;4.624;2023-05-23T13:01:36;13.5;;;3.3;;
52342;SDS011;38277;51.972;4.624;2023-05-23T13:05:45;15.0;;;3.5;;
52342;SDS011;38277;51.972;4.624;2023-05-23T13:15:00;17.2;;;5.1;;
52342;SDS011;38277;51.972;4.624;2023-05-23T13:19:34;15.4;;;4.5;;
52342;SDS011;38277;51.972;4.624;2023-05-23T13:23:53;14.0;;;4.0;;
52342;SDS011;38277;51.972;4.624;2023-05-23T13:33:05;12.2;;;3.1;;
52342;SDS011;38277;51.972;4.624;2023-05-23T13:37:30;11.6;;;3.4;;
52342;SDS011;38277;51.972;4.624;2023-05-23T13:46:28;12.8;;;3.2;;
52342;SDS011;38277;51.972;4.624;2023-05-23T13:50:58;11.6;;;2.9;;
52342;SDS011;38277;51.972;4.624;2023-05-23T13:55:24;9.6;;;2.9;;
52342;SDS011;38277;51.972;4.624;2023-05-23T14:00:05;15.9;;;4.3;;
52342;SDS011;38277;51.972;4.624;2023-05-23T14:04:18;9.5;;;2.6;;
52342;SDS011;38277;51.972;4.624;2023-05-23T14:08:53;10.3;;;3.3;;
52342;SDS011;38277;51.972;4.624;2023-05-23T14:17:45;10.0;;;2.6;;
52342;SDS011;38277;51.972;4.624;2023-05-23T14:22:20;11.2;;;3.0;;
52342;SDS011;38277;51.972;4.624;2023-05-23T14:26:55;10.6;;;2.8;;
52342;SDS011;38277;51.972;4.624;2023-05-23T14:31:16;16.6;;;3.3;;
52342;SDS011;38277;51.972;4.624;2023-05-23T14:36:07;8.0;;;2.2;;
52342;SDS011;38277;51.972;4.624;2023-05-23T14:40:19;12.6;;;3.2;;
52342;SDS011;38277;51.972;4.624;2023-05-23T14:44:56;10.6;;;2.8;;
52342;SDS011;38277;51.972;4.624;2023-05-23T14:49:35;8.6;;;2.6;;
52342;SDS011;38277;51.972;4.624;2023-05-23T14:54:01;9.7;;;2.8;;
52342;SDS011;38277;51.972;4.624;2023-05-23T14:58:21;8.3;;;2.6;;
52342;SDS011;38277;51.972;4.624;2023-05-23T15:02:40;9.5;;;2.7;;
52342;SDS011;38277;51.972;4.624;2023-05-23T15:07:27;9.2;;;2.7;;
52342;SDS011;38277;51.972;4.624;2023-05-23T15:11:58;9.8;;;2.8;;
52342;SDS011;38277;51.972;4.624;2023-05-23T15:16:58;9.7;;;3.0;;
52342;SDS011;38277;51.972;4.624;2023-05-23T15:20:54;9.7;;;2.6;;
52342;SDS011;38277;51.972;4.624;2023-05-23T15:25:36;9.6;;;3.0;;
52342;SDS011;38277;51.972;4.624;2023-05-23T15:34:21;14.1;;;2.8;;
52342;SDS011;38277;51.972;4.624;2023-05-23T15:39:04;13.2;;;3.2;;
52342;SDS011;38277;51.972;4.624;2023-05-23T15:43:37;12.3;;;3.2;;
52342;SDS011;38277;51.972;4.624;2023-05-23T15:52:28;11.7;;;3.6;;
52342;SDS011;38277;51.972;4.624;2023-05-23T15:56:44;12.8;;;2.8;;
52342;SDS011;38277;51.972;4.624;2023-05-23T16:01:11;13.0;;;3.5;;
52342;SDS011;38277;51.972;4.624;2023-05-23T16:10:14;10.8;;;3.2;;
52342;SDS011;38277;51.972;4.624;2023-05-23T16:15:01;10.1;;;2.8;;
52342;SDS011;38277;51.972;4.624;2023-05-23T16:19:17;8.4;;;2.5;;
52342;SDS011;38277;51.972;4.624;2023-05-23T16:23:38;12.0;;;3.9;;
52342;SDS011;38277;51.972;4.624;2023-05-23T16:28:18;12.3;;;2.7;;
52342;SDS011;38277;51.972;4.624;2023-05-23T16:32:54;10.3;;;3.0;;
52342;SDS011;38277;51.972;4.624;2023-05-23T16:37:23;11.5;;;3.0;;
52342;SDS011;38277;51.972;4.624;2023-05-23T16:41:49;11.7;;;2.6;;
52342;SDS011;38277;51.972;4.624;2023-05-23T16:46:15;12.1;;;3.4;;
52342;SDS011;38277;51.972;4.624;2023-05-23T16:51:00;9.8;;;2.9;;
52342;SDS011;38277;51.972;4.624;2023-05-23T16:55:11;11.9;;;2.9;;
52342;SDS011;38277;51.972;4.624;2023-05-23T16:59:38;14.7;;;2.7;;
52342;SDS011;38277;51.972;4.624;2023-05-23T17:04:22;10.6;;;2.7;;
52342;SDS011;38277;51.972;4.624;2023-05-23T17:08:52;11.0;;;3.4;;
52342;SDS011;38277;51.972;4.624;2023-05-23T17:13:23;13.0;;;3.3;;
52342;SDS011;38277;51.972;4.624;2023-05-23T17:17:47;9.9;;;2.5;;
52342;SDS011;38277;51.972;4.624;2023-05-23T17:22:19;11.0;;;2.8;;
52342;SDS011;38277;51.972;4.624;2023-05-23T17:27:03;7.6;;;2.4;;
52342;SDS011;38277;51.972;4.624;2023-05-23T17:36:07;15.2;;;3.0;;
52342;SDS011;38277;51.972;4.624;2023-05-23T17:40:29;11.4;;;2.5;;
52342;SDS011;38277;51.972;4.624;2023-05-23T17:45:02;10.2;;;2.5;;
52342;SDS011;38277;51.972;4.624;2023-05-23T17:49:28;11.1;;;3.4;;
52342;SDS011;38277;51.972;4.624;2023-05-23T17:53:58;11.5;;;2.8;;
52342;SDS011;38277;51.972;4.624;2023-05-23T17:58:15;10.3;;;2.2;;
52342;SDS011;38277;51.972;4.624;2023-05-23T18:02:48;11.9;;;2.9;;
52342;SDS011;38277;51.972;4.624;2023-05-23T18:11:48;11.9;;;2.9;;
52342;SDS011;38277;51.972;4.624;2023-05-23T18:16:14;9.5;;;2.7;;
52342;SDS011;38277;51.972;4.624;2023-05-23T18:20:45;14.4;;;2.9;;
52342;SDS011;38277;51.972;4.624;2023-05-23T18:25:26;8.5;;;2.4;;
52342;SDS011;38277;51.972;4.624;2023-05-23T18:29:39;9.1;;;2.6;;
52342;SDS011;38277;51.972;4.624;2023-05-23T18:34:27;10.8;;;2.2;;
52342;SDS011;38277;51.972;4.624;2023-05-23T18:38:43;12.3;;;2.7;;
52342;SDS011;38277;51.972;4.624;2023-05-23T18:43:11;13.0;;;2.7;;
52342;SDS011;38277;51.972;4.624;2023-05-23T18:47:43;11.5;;;2.7;;
52342;SDS011;38277;51.972;4.624;2023-05-23T18:52:15;10.5;;;2.6;;
52342;SDS011;38277;51.972;4.624;2023-05-23T18:56:57;8.8;;;2.6;;
52342;SDS011;38277;51.972;4.624;2023-05-23T19:01:21;17.6;;;3.5;;
52342;SDS011;38277;51.972;4.624;2023-05-23T19:05:57;12.5;;;2.5;;
52342;SDS011;38277;51.972;4.624;2023-05-23T19:14:57;13.2;;;3.5;;
52342;SDS011;38277;51.972;4.624;2023-05-23T19:19:31;8.9;;;2.6;;
52342;SDS011;38277;51.972;4.624;2023-05-23T19:23:44;10.6;;;3.0;;
52342;SDS011;38277;51.972;4.624;2023-05-23T19:28:32;12.5;;;2.9;;
52342;SDS011;38277;51.972;4.624;2023-05-23T19:32:59;14.1;;;3.1;;
52342;SDS011;38277;51.972;4.624;2023-05-23T19:37:09;7.0;;;2.3;;
52342;SDS011;38277;51.972;4.624;2023-05-23T19:41:43;12.0;;;3.1;;
52342;SDS011;38277;51.972;4.624;2023-05-23T19:50:40;13.7;;;2.8;;
52342;SDS011;38277;51.972;4.624;2023-05-23T19:55:25;10.5;;;2.9;;
52342;SDS011;38277;51.972;4.624;2023-05-23T19:59:50;10.7;;;2.9;;
52342;SDS011;38277;51.972;4.624;2023-05-23T20:04:10;7.9;;;2.7;;
52342;SDS011;38277;51.972;4.624;2023-05-23T20:09:07;11.9;;;2.9;;
52342;SDS011;38277;51.972;4.624;2023-05-23T20:13:11;9.5;;;2.6;;
52342;SDS011;38277;51.972;4.624;2023-05-23T20:17:45;11.5;;;2.7;;
52342;SDS011;38277;51.972;4.624;2023-05-23T20:23:12;12.1;;;2.9;;
52342;SDS011;38277;51.972;4.624;2023-05-23T20:27:05;7.5;;;2.1;;
52342;SDS011;38277;51.972;4.624;2023-05-23T20:31:35;10.5;;;2.5;;
52342;SDS011;38277;51.972;4.624;2023-05-23T20:35:55;10.1;;;3.3;;
52342;SDS011;38277;51.972;4.624;2023-05-23T20:40:16;10.3;;;3.2;;
52342;SDS011;38277;51.972;4.624;2023-05-23T20:44:53;11.9;;;3.0;;
52342;SDS011;38277;51.972;4.624;2023-05-23T20:54:04;13.4;;;3.2;;
52342;SDS011;38277;51.972;4.624;2023-05-23T20:58:18;11.5;;;2.9;;
52342;SDS011;38277;51.972;4.624;2023-05-23T21:03:00;10.0;;;3.3;;
52342;SDS011;38277;51.972;4.624;2023-05-23T21:07:19;12.6;;;2.8;;
52342;SDS011;38277;51.972;4.624;2023-05-23T21:11:40;13.4;;;3.2;;
52342;SDS011;38277;51.972;4.624;2023-05-23T21:16:25;9.4;;;3.0;;
52342;SDS011;38277;51.972;4.624;2023-05-23T21:20:57;10.3;;;2.5;;
52342;SDS011;38277;51.972;4.624;2023-05-23T21:29:59;8.4;;;2.3;;
52342;SDS011;38277;51.972;4.624;2023-05-23T21:34:12;10.1;;;2.8;;
52342;SDS011;38277;51.972;4.624;2023-05-23T21:38:40;8.9;;;2.8;;
52342;SDS011;38277;51.972;4.624;2023-05-23T21:43:17;10.8;;;2.7;;
52342;SDS011;38277;51.972;4.624;2023-05-23T21:47:40;12.5;;;2.8;;
52342;SDS011;38277;51.972;4.624;2023-05-23T21:52:32;7.3;;;2.3;;
52342;SDS011;38277;51.972;4.624;2023-05-23T21:56:40;9.2;;;2.5;;
52342;SDS011;38277;51.972;4.624;2023-05-23T22:01:26;9.7;;;2.5;;
52342;SDS011;38277;51.972;4.624;2023-05-23T22:05:43;9.8;;;2.3;;
52342;SDS011;38277;51.972;4.624;2023-05-23T22:10:21;10.3;;;2.9;;
52342;SDS011;38277;51.972;4.624;2023-05-23T22:15:02;12.0;;;3.0;;
52342;SDS011;38277;51.972;4.624;2023-05-23T22:19:20;12.2;;;2.9;;
52342;SDS011;38277;51.972;4.624;2023-05-23T22:23:46;14.4;;;3.8;;
52342;SDS011;38277;51.972;4.624;2023-05-23T22:32:59;10.3;;;2.9;;
52342;SDS011;38277;51.972;4.624;2023-05-23T22:37:27;11.2;;;2.8;;
52342;SDS011;38277;51.972;4.624;2023-05-23T22:41:58;10.6;;;3.7;;
52342;SDS011;38277;51.972;4.624;2023-05-23T22:50:56;8.6;;;2.8;;
52342;SDS011;38277;51.972;4.624;2023-05-23T22:55:20;10.6;;;3.0;;
52342;SDS011;38277;51.972;4.624;2023-05-23T22:59:59;12.9;;;3.1;;
52342;SDS011;38277;51.972;4.624;2023-05-23T23:08:47;12.6;;;3.0;;
52342;SDS011;38277;51.972;4.624;2023-05-23T23:13:32;10.6;;;3.2;;
52342;SDS011;38277;51.972;4.624;2023-05-23T23:18:01;12.0;;;2.7;;
52342;SDS011;38277;51.972;4.624;2023-05-23T23:22:35;13.7;;;2.9;;
52342;SDS011;38277;51.972;4.624;2023-05-23T23:27:45;9.2;;;2.5;;
52342;SDS011;38277;51.972;4.624;2023-05-23T23:31:23;8.1;;;2.5;;
52342;SDS011;38277;51.972;4.624;2023-05-23T23:35:50;7.0;;;2.5;;
52342;SDS011;38277;51.972;4.624;2023-05-23T23:40:09;12.9;;;3.3;;
52342;SDS011;38277;51.972;4.624;2023-05-23T23:45:23;9.8;;;2.7;;
52342;SDS011;38277;51.972;4.624;2023-05-23T23:49:21;8.5;;;2.9;;
52342;SDS011;38277;51.972;4.624;2023-05-23T23:53:56;7.0;;;2.3;;
52342;SDS011;38277;51.972;4.624;2023-05-23T23:58:23;9.4;;;2.7;;
